TAF Text Data
IDs:
Format:
Raw Decoded Include METAR

Data at: 0241 UTC 29 Nov 2020

KEET 282338Z 2900/2924 VRB04KT P6SM OVC250
  FM291500 13006KT P6SM OVC018
  PROB30 2915/2918 4SM SHRA BR OVC009
  FM291800 13005KT 6SM SHRA BR OVC011
  PROB30 2918/2919 4SM TSRA BR OVC009CB
  FM291900 10006KT 6SM SHRA BR OVC006
  PROB30 2919/2923 2SM TSRA BR OVC003CB
  FM292300 10007KT 4SM SHRA BR OVC003
  PROB30 2923/2924 2SM TSRA BR OVC003CB